sensor_id;sensor_type;location;lat;lon;timestamp;temperature;humidity
56753;DHT22;42627;42.646;23.642;2023-07-24T00:01:29;18.80;94.40
56753;DHT22;42627;42.646;23.642;2023-07-24T00:03:30;18.70;94.80
56753;DHT22;42627;42.646;23.642;2023-07-24T00:05:31;18.70;94.60
56753;DHT22;42627;42.646;23.642;2023-07-24T00:07:31;18.70;94.30
56753;DHT22;42627;42.646;23.642;2023-07-24T00:09:32;18.70;94.30
56753;DHT22;42627;42.646;23.642;2023-07-24T00:11:33;18.70;94.30
56753;DHT22;42627;42.646;23.642;2023-07-24T00:13:33;18.70;94.20
56753;DHT22;42627;42.646;23.642;2023-07-24T00:15:35;18.60;94.30
56753;DHT22;42627;42.646;23.642;2023-07-24T00:17:35;18.60;94.60
56753;DHT22;42627;42.646;23.642;2023-07-24T00:19:36;18.70;94.40
56753;DHT22;42627;42.646;23.642;2023-07-24T00:21:37;18.60;94.40
56753;DHT22;42627;42.646;23.642;2023-07-24T00:23:37;18.70;94.40
56753;DHT22;42627;42.646;23.642;2023-07-24T00:25:38;18.60;94.70
56753;DHT22;42627;42.646;23.642;2023-07-24T00:27:38;18.70;94.50
56753;DHT22;42627;42.646;23.642;2023-07-24T00:29:39;18.70;94.10
56753;DHT22;42627;42.646;23.642;2023-07-24T00:31:40;18.70;94.10
56753;DHT22;42627;42.646;23.642;2023-07-24T00:33:40;18.80;93.90
56753;DHT22;42627;42.646;23.642;2023-07-24T00:35:41;18.80;93.60
56753;DHT22;42627;42.646;23.642;2023-07-24T00:37:42;18.60;93.60
56753;DHT22;42627;42.646;23.642;2023-07-24T00:39:42;18.60;94.10
56753;DHT22;42627;42.646;23.642;2023-07-24T00:41:43;18.40;94.50
56753;DHT22;42627;42.646;23.642;2023-07-24T00:43:44;18.40;94.60
56753;DHT22;42627;42.646;23.642;2023-07-24T00:45:45;18.40;94.60
56753;DHT22;42627;42.646;23.642;2023-07-24T00:47:47;18.40;94.70
56753;DHT22;42627;42.646;23.642;2023-07-24T00:49:48;18.30;95.20
56753;DHT22;42627;42.646;23.642;2023-07-24T00:51:49;18.20;95.50
56753;DHT22;42627;42.646;23.642;2023-07-24T00:53:50;18.10;95.60
56753;DHT22;42627;42.646;23.642;2023-07-24T00:55:51;18.20;95.80
56753;DHT22;42627;42.646;23.642;2023-07-24T00:57:52;18.20;96.00
56753;DHT22;42627;42.646;23.642;2023-07-24T00:59:52;18.40;95.40
56753;DHT22;42627;42.646;23.642;2023-07-24T01:01:54;18.50;94.80
56753;DHT22;42627;42.646;23.642;2023-07-24T01:03:57;18.60;94.10
56753;DHT22;42627;42.646;23.642;2023-07-24T01:05:58;18.60;94.00
56753;DHT22;42627;42.646;23.642;2023-07-24T01:07:59;18.40;94.10
56753;DHT22;42627;42.646;23.642;2023-07-24T01:10:00;18.50;94.40
56753;DHT22;42627;42.646;23.642;2023-07-24T01:14:47;18.30;94.20
56753;DHT22;42627;42.646;23.642;2023-07-24T01:16:48;18.20;94.30
56753;DHT22;42627;42.646;23.642;2023-07-24T01:18:51;18.30;94.30
56753;DHT22;42627;42.646;23.642;2023-07-24T01:20:56;18.30;94.30
56753;DHT22;42627;42.646;23.642;2023-07-24T01:25:31;18.30;94.40
56753;DHT22;42627;42.646;23.642;2023-07-24T01:27:32;18.20;94.30
56753;DHT22;42627;42.646;23.642;2023-07-24T01:29:33;18.10;94.90
56753;DHT22;42627;42.646;23.642;2023-07-24T01:31:33;18.20;95.00
56753;DHT22;42627;42.646;23.642;2023-07-24T01:33:34;18.20;94.50
56753;DHT22;42627;42.646;23.642;2023-07-24T01:35:36;18.10;94.90
56753;DHT22;42627;42.646;23.642;2023-07-24T01:37:38;17.90;95.40
56753;DHT22;42627;42.646;23.642;2023-07-24T01:39:41;17.80;95.60
56753;DHT22;42627;42.646;23.642;2023-07-24T01:41:43;17.70;96.20
56753;DHT22;42627;42.646;23.642;2023-07-24T01:43:43;17.60;96.60
56753;DHT22;42627;42.646;23.642;2023-07-24T01:45:44;17.60;96.80
56753;DHT22;42627;42.646;23.642;2023-07-24T01:47:44;17.70;96.60
56753;DHT22;42627;42.646;23.642;2023-07-24T01:49:45;17.70;96.50
56753;DHT22;42627;42.646;23.642;2023-07-24T01:51:46;17.90;96.40
56753;DHT22;42627;42.646;23.642;2023-07-24T01:53:46;18.00;95.80
56753;DHT22;42627;42.646;23.642;2023-07-24T01:55:47;18.00;95.40
56753;DHT22;42627;42.646;23.642;2023-07-24T01:57:47;18.10;95.20
56753;DHT22;42627;42.646;23.642;2023-07-24T01:59:48;18.20;95.10
56753;DHT22;42627;42.646;23.642;2023-07-24T02:01:49;18.20;94.50
56753;DHT22;42627;42.646;23.642;2023-07-24T02:03:49;18.20;94.10
56753;DHT22;42627;42.646;23.642;2023-07-24T02:05:50;18.10;94.20
56753;DHT22;42627;42.646;23.642;2023-07-24T02:07:51;17.90;94.20
56753;DHT22;42627;42.646;23.642;2023-07-24T02:09:52;17.80;94.50
56753;DHT22;42627;42.646;23.642;2023-07-24T02:11:53;17.70;94.80
56753;DHT22;42627;42.646;23.642;2023-07-24T02:13:53;17.50;95.40
56753;DHT22;42627;42.646;23.642;2023-07-24T02:15:54;17.30;96.10
56753;DHT22;42627;42.646;23.642;2023-07-24T02:17:55;17.30;96.30
56753;DHT22;42627;42.646;23.642;2023-07-24T02:19:55;17.30;96.50
56753;DHT22;42627;42.646;23.642;2023-07-24T02:21:56;17.40;96.50
56753;DHT22;42627;42.646;23.642;2023-07-24T02:23:56;17.40;96.40
56753;DHT22;42627;42.646;23.642;2023-07-24T02:25:57;17.40;96.30
56753;DHT22;42627;42.646;23.642;2023-07-24T02:27:58;17.50;96.20
56753;DHT22;42627;42.646;23.642;2023-07-24T02:29:58;17.70;95.70
56753;DHT22;42627;42.646;23.642;2023-07-24T02:32:00;17.80;95.30
56753;DHT22;42627;42.646;23.642;2023-07-24T02:34:00;17.80;94.80
56753;DHT22;42627;42.646;23.642;2023-07-24T02:36:01;17.90;94.50
56753;DHT22;42627;42.646;23.642;2023-07-24T02:38:02;17.90;94.30
56753;DHT22;42627;42.646;23.642;2023-07-24T02:40:03;17.90;93.70
56753;DHT22;42627;42.646;23.642;2023-07-24T02:42:04;18.00;93.40
56753;DHT22;42627;42.646;23.642;2023-07-24T02:44:04;17.90;93.40
56753;DHT22;42627;42.646;23.642;2023-07-24T02:46:05;18.00;93.00
56753;DHT22;42627;42.646;23.642;2023-07-24T02:48:06;17.90;92.70
56753;DHT22;42627;42.646;23.642;2023-07-24T02:50:07;17.70;92.70
56753;DHT22;42627;42.646;23.642;2023-07-24T02:52:07;17.80;92.80
56753;DHT22;42627;42.646;23.642;2023-07-24T02:54:08;17.80;92.80
56753;DHT22;42627;42.646;23.642;2023-07-24T02:56:08;17.80;92.80
56753;DHT22;42627;42.646;23.642;2023-07-24T02:58:13;17.70;92.30
56753;DHT22;42627;42.646;23.642;2023-07-24T03:00:14;17.60;92.60
56753;DHT22;42627;42.646;23.642;2023-07-24T03:02:15;17.30;93.80
56753;DHT22;42627;42.646;23.642;2023-07-24T03:04:15;17.10;94.60
56753;DHT22;42627;42.646;23.642;2023-07-24T03:06:16;17.10;95.00
56753;DHT22;42627;42.646;23.642;2023-07-24T03:08:17;17.00;94.90
56753;DHT22;42627;42.646;23.642;2023-07-24T03:10:17;17.10;94.90
56753;DHT22;42627;42.646;23.642;2023-07-24T03:12:18;17.10;94.90
56753;DHT22;42627;42.646;23.642;2023-07-24T03:14:19;16.90;95.30
56753;DHT22;42627;42.646;23.642;2023-07-24T03:16:19;16.70;96.20
56753;DHT22;42627;42.646;23.642;2023-07-24T03:18:22;16.60;97.00
56753;DHT22;42627;42.646;23.642;2023-07-24T03:20:22;16.50;98.00
56753;DHT22;42627;42.646;23.642;2023-07-24T03:22:23;16.50;97.90
56753;DHT22;42627;42.646;23.642;2023-07-24T03:24:24;16.60;98.00
56753;DHT22;42627;42.646;23.642;2023-07-24T03:26:24;16.50;98.00
56753;DHT22;42627;42.646;23.642;2023-07-24T03:28:25;16.50;98.20
56753;DHT22;42627;42.646;23.642;2023-07-24T03:30:27;16.50;98.40
56753;DHT22;42627;42.646;23.642;2023-07-24T03:34:28;16.50;98.60
56753;DHT22;42627;42.646;23.642;2023-07-24T03:36:29;16.70;98.00
56753;DHT22;42627;42.646;23.642;2023-07-24T03:40:31;16.70;97.00
56753;DHT22;42627;42.646;23.642;2023-07-24T03:42:32;17.00;96.40
56753;DHT22;42627;42.646;23.642;2023-07-24T03:44:32;17.00;95.90
56753;DHT22;42627;42.646;23.642;2023-07-24T03:46:33;17.10;96.00
56753;DHT22;42627;42.646;23.642;2023-07-24T03:48:34;17.10;95.90
56753;DHT22;42627;42.646;23.642;2023-07-24T03:50:37;17.20;95.90
56753;DHT22;42627;42.646;23.642;2023-07-24T03:52:38;17.30;95.70
56753;DHT22;42627;42.646;23.642;2023-07-24T03:54:39;17.40;95.60
56753;DHT22;42627;42.646;23.642;2023-07-24T03:56:39;17.40;95.60
56753;DHT22;42627;42.646;23.642;2023-07-24T03:58:40;17.40;95.60
56753;DHT22;42627;42.646;23.642;2023-07-24T04:00:41;17.50;95.90
56753;DHT22;42627;42.646;23.642;2023-07-24T04:02:41;17.50;95.90
56753;DHT22;42627;42.646;23.642;2023-07-24T04:04:42;17.50;96.50
56753;DHT22;42627;42.646;23.642;2023-07-24T04:06:43;17.40;97.20
56753;DHT22;42627;42.646;23.642;2023-07-24T04:08:43;17.40;98.00
56753;DHT22;42627;42.646;23.642;2023-07-24T04:10:44;17.50;97.90
56753;DHT22;42627;42.646;23.642;2023-07-24T04:18:48;17.50;98.20
56753;DHT22;42627;42.646;23.642;2023-07-24T04:20:48;17.70;98.60
56753;DHT22;42627;42.646;23.642;2023-07-24T04:22:49;17.80;98.60
56753;DHT22;42627;42.646;23.642;2023-07-24T04:24:50;17.80;98.30
56753;DHT22;42627;42.646;23.642;2023-07-24T04:26:50;17.90;98.00
56753;DHT22;42627;42.646;23.642;2023-07-24T04:28:51;17.90;97.90
56753;DHT22;42627;42.646;23.642;2023-07-24T04:30:51;17.90;98.10
56753;DHT22;42627;42.646;23.642;2023-07-24T04:32:52;17.90;98.00
56753;DHT22;42627;42.646;23.642;2023-07-24T04:34:53;17.90;98.00
56753;DHT22;42627;42.646;23.642;2023-07-24T04:36:54;18.00;98.20
56753;DHT22;42627;42.646;23.642;2023-07-24T04:49:01;18.10;98.10
56753;DHT22;42627;42.646;23.642;2023-07-24T04:51:02;18.40;98.50
56753;DHT22;42627;42.646;23.642;2023-07-24T04:53:03;18.50;98.20
56753;DHT22;42627;42.646;23.642;2023-07-24T04:55:04;18.60;98.00
56753;DHT22;42627;42.646;23.642;2023-07-24T04:57:04;18.50;98.10
56753;DHT22;42627;42.646;23.642;2023-07-24T04:59:05;18.60;98.40
56753;DHT22;42627;42.646;23.642;2023-07-24T05:01:06;18.60;98.00
56753;DHT22;42627;42.646;23.642;2023-07-24T05:03:06;18.60;98.40
56753;DHT22;42627;42.646;23.642;2023-07-24T05:05:11;18.70;98.40
56753;DHT22;42627;42.646;23.642;2023-07-24T05:07:11;18.80;98.30
56753;DHT22;42627;42.646;23.642;2023-07-24T05:09:12;18.80;98.30
56753;DHT22;42627;42.646;23.642;2023-07-24T05:11:13;18.80;98.40
56753;DHT22;42627;42.646;23.642;2023-07-24T05:15:14;18.80;99.30
56753;DHT22;42627;42.646;23.642;2023-07-24T05:17:18;18.90;98.90
56753;DHT22;42627;42.646;23.642;2023-07-24T05:19:20;19.00;98.80
56753;DHT22;42627;42.646;23.642;2023-07-24T05:23:22;19.10;98.40
56753;DHT22;42627;42.646;23.642;2023-07-24T05:25:22;19.10;99.10
56753;DHT22;42627;42.646;23.642;2023-07-24T05:27:23;19.20;98.50
56753;DHT22;42627;42.646;23.642;2023-07-24T05:31:25;19.10;98.30
56753;DHT22;42627;42.646;23.642;2023-07-24T05:33:25;19.40;98.30
56753;DHT22;42627;42.646;23.642;2023-07-24T05:35:26;19.50;97.90
56753;DHT22;42627;42.646;23.642;2023-07-24T05:41:31;19.50;97.90
56753;DHT22;42627;42.646;23.642;2023-07-24T05:43:31;19.60;97.10
56753;DHT22;42627;42.646;23.642;2023-07-24T05:45:32;19.70;97.00
56753;DHT22;42627;42.646;23.642;2023-07-24T05:47:33;19.90;96.90
56753;DHT22;42627;42.646;23.642;2023-07-24T05:49:34;20.10;96.90
56753;DHT22;42627;42.646;23.642;2023-07-24T05:51:35;20.10;95.30
56753;DHT22;42627;42.646;23.642;2023-07-24T05:53:35;20.20;95.20
56753;DHT22;42627;42.646;23.642;2023-07-24T05:55:36;20.30;95.10
56753;DHT22;42627;42.646;23.642;2023-07-24T05:57:37;20.30;94.60
56753;DHT22;42627;42.646;23.642;2023-07-24T06:01:38;20.40;94.40
56753;DHT22;42627;42.646;23.642;2023-07-24T20:34:23;20.60;92.70
56753;DHT22;42627;42.646;23.642;2023-07-24T20:38:35;23.10;68.30
56753;DHT22;42627;42.646;23.642;2023-07-24T20:40:36;23.00;68.30
56753;DHT22;42627;42.646;23.642;2023-07-24T20:42:37;22.90;68.50
56753;DHT22;42627;42.646;23.642;2023-07-24T20:44:38;22.90;68.60
56753;DHT22;42627;42.646;23.642;2023-07-24T20:46:38;22.80;68.80
56753;DHT22;42627;42.646;23.642;2023-07-24T20:48:39;22.70;68.90
56753;DHT22;42627;42.646;23.642;2023-07-24T20:56:44;22.60;69.50
56753;DHT22;42627;42.646;23.642;2023-07-24T20:58:45;22.60;69.90
56753;DHT22;42627;42.646;23.642;2023-07-24T21:00:46;22.60;70.00
56753;DHT22;42627;42.646;23.642;2023-07-24T21:02:46;22.60;70.20
56753;DHT22;42627;42.646;23.642;2023-07-24T21:04:49;22.50;70.30
56753;DHT22;42627;42.646;23.642;2023-07-24T21:06:50;22.40;70.80
56753;DHT22;42627;42.646;23.642;2023-07-24T21:08:50;22.30;71.20
56753;DHT22;42627;42.646;23.642;2023-07-24T21:11:16;22.20;71.40
56753;DHT22;42627;42.646;23.642;2023-07-24T21:13:17;22.10;72.40
56753;DHT22;42627;42.646;23.642;2023-07-24T21:29:00;22.00;73.40
56753;DHT22;42627;42.646;23.642;2023-07-24T21:31:12;22.00;73.40
56753;DHT22;42627;42.646;23.642;2023-07-24T21:33:13;21.90;73.30
56753;DHT22;42627;42.646;23.642;2023-07-24T21:35:13;21.80;73.60
56753;DHT22;42627;42.646;23.642;2023-07-24T21:37:14;21.70;73.70
56753;DHT22;42627;42.646;23.642;2023-07-24T21:39:14;21.60;73.80
56753;DHT22;42627;42.646;23.642;2023-07-24T21:41:40;21.60;74.50
56753;DHT22;42627;42.646;23.642;2023-07-24T21:43:40;21.50;75.00
56753;DHT22;42627;42.646;23.642;2023-07-24T21:45:44;21.40;75.00
56753;DHT22;42627;42.646;23.642;2023-07-24T21:47:44;21.40;74.90
56753;DHT22;42627;42.646;23.642;2023-07-24T21:49:45;21.40;75.00
56753;DHT22;42627;42.646;23.642;2023-07-24T21:55:01;21.40;75.10
56753;DHT22;42627;42.646;23.642;2023-07-24T21:57:02;21.40;75.10
56753;DHT22;42627;42.646;23.642;2023-07-24T21:59:03;21.30;75.00
56753;DHT22;42627;42.646;23.642;2023-07-24T22:01:03;21.40;74.90
56753;DHT22;42627;42.646;23.642;2023-07-24T22:03:04;21.40;74.80
56753;DHT22;42627;42.646;23.642;2023-07-24T22:05:05;21.30;75.00
56753;DHT22;42627;42.646;23.642;2023-07-24T22:07:06;21.20;75.10
56753;DHT22;42627;42.646;23.642;2023-07-24T22:09:06;21.10;75.20
56753;DHT22;42627;42.646;23.642;2023-07-24T22:11:35;21.10;75.10
56753;DHT22;42627;42.646;23.642;2023-07-24T22:13:36;21.00;75.00
56753;DHT22;42627;42.646;23.642;2023-07-24T22:15:36;21.10;75.20
56753;DHT22;42627;42.646;23.642;2023-07-24T22:17:37;21.00;74.90
56753;DHT22;42627;42.646;23.642;2023-07-24T22:19:38;21.00;75.00
56753;DHT22;42627;42.646;23.642;2023-07-24T22:25:00;21.00;75.60
56753;DHT22;42627;42.646;23.642;2023-07-24T22:27:00;21.00;76.00
56753;DHT22;42627;42.646;23.642;2023-07-24T22:29:01;20.90;76.10
56753;DHT22;42627;42.646;23.642;2023-07-24T22:41:53;20.70;76.40
56753;DHT22;42627;42.646;23.642;2023-07-24T22:43:54;20.70;76.80
56753;DHT22;42627;42.646;23.642;2023-07-24T22:45:55;20.60;76.60
56753;DHT22;42627;42.646;23.642;2023-07-24T22:47:55;20.60;76.70
56753;DHT22;42627;42.646;23.642;2023-07-24T22:49:56;20.60;76.60
56753;DHT22;42627;42.646;23.642;2023-07-24T22:51:57;20.60;76.80
56753;DHT22;42627;42.646;23.642;2023-07-24T22:53:58;20.50;77.10
56753;DHT22;42627;42.646;23.642;2023-07-24T23:06:41;20.50;77.30
56753;DHT22;42627;42.646;23.642;2023-07-24T23:08:42;20.50;78.70
56753;DHT22;42627;42.646;23.642;2023-07-24T23:10:43;20.40;79.00
56753;DHT22;42627;42.646;23.642;2023-07-24T23:12:43;20.50;78.90
56753;DHT22;42627;42.646;23.642;2023-07-24T23:15:08;20.50;79.00
56753;DHT22;42627;42.646;23.642;2023-07-24T23:17:09;20.50;78.80
56753;DHT22;42627;42.646;23.642;2023-07-24T23:19:10;20.40;79.00
56753;DHT22;42627;42.646;23.642;2023-07-24T23:21:11;20.40;79.10
56753;DHT22;42627;42.646;23.642;2023-07-24T23:23:11;20.40;79.30
56753;DHT22;42627;42.646;23.642;2023-07-24T23:31:18;20.30;79.40
56753;DHT22;42627;42.646;23.642;2023-07-24T23:33:20;20.40;79.50
56753;DHT22;42627;42.646;23.642;2023-07-24T23:35:22;20.30;79.00
56753;DHT22;42627;42.646;23.642;2023-07-24T23:37:22;20.30;79.30
56753;DHT22;42627;42.646;23.642;2023-07-24T23:39:23;20.30;78.90
56753;DHT22;42627;42.646;23.642;2023-07-24T23:41:23;20.30;78.70
56753;DHT22;42627;42.646;23.642;2023-07-24T23:43:26;20.20;78.80
56753;DHT22;42627;42.646;23.642;2023-07-24T23:45:47;20.30;78.70
56753;DHT22;42627;42.646;23.642;2023-07-24T23:47:48;20.30;78.50
56753;DHT22;42627;42.646;23.642;2023-07-24T23:49:49;20.30;78.80
56753;DHT22;42627;42.646;23.642;2023-07-24T23:51:49;20.20;79.10
56753;DHT22;42627;42.646;23.642;2023-07-24T23:53:50;20.30;79.40
56753;DHT22;42627;42.646;23.642;2023-07-24T23:55:50;20.50;78.80
56753;DHT22;42627;42.646;23.642;2023-07-24T23:57:51;20.50;79.20
